Current Conditions
Clear
Conditions



Pressure
30.1 (inHG) - 1019.32 (mb)
Visibility

10.0 (mimiles) - 16.1 (km)
   Temperature
82  °F
28°C
70  °F
Dewpoint
66  %
 Humidity
   Wind Speed
0  mph
0  kts
0  km/h
0  m/s
   Wind Direction
Calm
Due North
   Airport Data
KMSL
Location Northwest Alabama Regional 15 mi (24.14 km)
Metar :KMSL 271353Z AUTO 00000KT 10SM CLR 28/21 A3010 RMK AO2 SLP183 T02830206
Mon 27th May 07:53 am
   Raw Metar Info
Raw METAR is the most common format in the world for the transmission of observational weather data. It is highly standardized through the International Civil Aviation Organization (ICAO), which allows it to be understood throughout most of the world.
   API Info
Data Provided by
https://www.checkwx.com/weather/KMSL
   © Info
CSS/SVG/PHP scripts were developed by weather34.com for use in the weather34 template © 2015-2019

Guide Info provided by Metar-Wikipedia